createdAt,value
2022-08-23T00:00:13.159Z,20.50
2022-08-23T00:02:42.388Z,20.50
2022-08-23T00:05:12.926Z,20.40
2022-08-23T00:07:45.161Z,20.30
2022-08-23T00:10:18.192Z,20.20
2022-08-23T00:12:48.014Z,20.20
2022-08-23T00:15:18.617Z,20.00
2022-08-23T00:17:46.920Z,20.00
2022-08-23T00:20:17.450Z,19.90
2022-08-23T00:22:47.655Z,19.80
2022-08-23T00:25:16.656Z,19.80
2022-08-23T00:28:01.264Z,19.80
2022-08-23T00:30:54.350Z,19.80
2022-08-23T00:33:22.500Z,19.70
2022-08-23T00:35:50.942Z,19.80
2022-08-23T00:38:34.283Z,19.70
2022-08-23T00:41:04.761Z,19.70
2022-08-23T00:43:55.639Z,19.70
2022-08-23T00:46:56.945Z,19.70
2022-08-23T00:49:26.322Z,19.70
2022-08-23T00:52:01.717Z,19.70
2022-08-23T00:54:33.048Z,19.60
2022-08-23T00:57:05.897Z,19.60
2022-08-23T00:59:34.336Z,19.60
2022-08-23T01:02:22.771Z,19.60
2022-08-23T01:04:55.563Z,19.50
2022-08-23T01:07:34.304Z,19.50
2022-08-23T01:10:10.756Z,19.60
2022-08-23T01:12:52.646Z,19.60
2022-08-23T01:15:27.685Z,19.70
2022-08-23T01:18:02.727Z,19.70
2022-08-23T01:20:36.733Z,19.70
2022-08-23T01:23:14.924Z,19.80
2022-08-23T01:25:44.779Z,19.90
2022-08-23T01:28:12.793Z,20.00
2022-08-23T01:30:44.698Z,20.00
2022-08-23T01:33:12.839Z,20.00
2022-08-23T01:35:44.382Z,20.00
2022-08-23T01:38:13.955Z,19.90
2022-08-23T01:40:44.874Z,19.90
2022-08-23T01:43:14.388Z,19.90
2022-08-23T01:45:43.194Z,20.00
2022-08-23T01:48:11.414Z,20.00
2022-08-23T01:50:40.220Z,19.90
2022-08-23T01:53:09.576Z,19.90
2022-08-23T01:55:38.231Z,19.80
2022-08-23T01:58:08.130Z,19.70
2022-08-23T02:00:40.001Z,19.60
2022-08-23T02:06:33.432Z,19.50
2022-08-23T02:09:26.353Z,19.40
2022-08-23T02:12:14.513Z,19.30
2022-08-23T02:27:23.624Z,18.90
2022-08-23T02:30:30.774Z,19.00
2022-08-23T02:33:13.561Z,18.90
2022-08-23T02:36:03.861Z,18.90
2022-08-23T02:38:46.678Z,18.80
2022-08-23T02:41:29.386Z,18.80
2022-08-23T02:44:06.340Z,18.70
2022-08-23T02:50:13.949Z,18.60
2022-08-23T02:52:48.847Z,18.60
2022-08-23T02:55:24.857Z,18.60
2022-08-23T03:00:54.820Z,18.50
2022-08-23T03:03:39.760Z,18.50
2022-08-23T03:06:40.615Z,18.50
2022-08-23T03:09:21.330Z,18.50
2022-08-23T03:18:08.338Z,18.60
2022-08-23T03:30:04.289Z,18.70
2022-08-23T03:33:07.528Z,18.70
2022-08-23T03:35:47.776Z,18.70
2022-08-23T03:38:56.884Z,18.70
2022-08-23T03:42:16.869Z,18.70
2022-08-23T03:45:41.426Z,18.70
2022-08-23T03:51:17.070Z,18.70
2022-08-23T03:53:46.592Z,18.60
2022-08-23T03:56:23.381Z,18.60
2022-08-23T03:58:51.517Z,18.50
2022-08-23T04:01:24.154Z,18.40
2022-08-23T04:03:54.704Z,18.30
2022-08-23T04:06:22.763Z,18.20
2022-08-23T04:08:50.824Z,18.20
2022-08-23T04:11:18.891Z,18.10
2022-08-23T04:13:47.241Z,18.00
2022-08-23T04:16:15.594Z,18.00
2022-08-23T04:18:45.116Z,17.90
2022-08-23T04:21:17.333Z,17.90
2022-08-23T04:23:45.644Z,17.80
2022-08-23T04:26:13.690Z,17.70
2022-08-23T04:28:41.873Z,17.80
2022-08-23T04:31:10.104Z,17.70
2022-08-23T04:33:40.214Z,17.70
2022-08-23T04:36:10.118Z,17.70
2022-08-23T04:38:38.249Z,17.70
2022-08-23T04:41:23.981Z,17.70
2022-08-23T04:43:52.071Z,17.80
2022-08-23T04:46:20.125Z,17.80
2022-08-23T04:48:48.725Z,17.80
2022-08-23T04:51:18.387Z,17.90
2022-08-23T04:53:46.663Z,17.90
2022-08-23T04:56:14.740Z,17.90
2022-08-23T04:58:42.759Z,17.90
2022-08-23T05:01:11.828Z,17.90
2022-08-23T05:03:39.997Z,17.90
2022-08-23T05:06:08.613Z,17.90
2022-08-23T05:08:38.325Z,17.90
2022-08-23T05:11:09.306Z,17.90
2022-08-23T05:13:38.412Z,17.90
2022-08-23T05:16:07.251Z,17.90
2022-08-23T05:18:35.914Z,17.90
2022-08-23T05:21:04.296Z,17.90
2022-08-23T05:23:32.750Z,18.00
2022-08-23T05:26:02.744Z,18.00
2022-08-23T05:28:33.229Z,18.00
2022-08-23T05:31:03.777Z,18.10
2022-08-23T05:33:33.422Z,18.20
2022-08-23T05:36:01.910Z,18.20
2022-08-23T05:38:30.138Z,18.20
2022-08-23T05:41:02.025Z,18.10
2022-08-23T05:43:35.073Z,18.10
2022-08-23T05:46:05.512Z,18.20
2022-08-23T05:48:35.459Z,18.20
2022-08-23T05:51:15.792Z,18.20
2022-08-23T05:53:44.337Z,18.10
2022-08-23T05:56:14.573Z,18.10
2022-08-23T05:58:44.941Z,18.10
2022-08-23T06:01:14.098Z,18.10
2022-08-23T06:03:42.434Z,18.10
2022-08-23T06:06:11.254Z,18.20
2022-08-23T06:08:40.226Z,18.20
2022-08-23T06:11:11.285Z,18.20
2022-08-23T06:13:42.858Z,18.30
2022-08-23T06:16:15.458Z,18.30
2022-08-23T06:18:44.431Z,18.40
2022-08-23T06:21:14.638Z,18.50
2022-08-23T06:23:43.933Z,18.60
2022-08-23T06:26:13.546Z,18.80
2022-08-23T06:28:50.475Z,19.00
2022-08-23T06:31:36.499Z,19.10
2022-08-23T06:34:04.905Z,19.40
2022-08-23T06:36:33.351Z,19.60
2022-08-23T06:39:01.532Z,19.80
2022-08-23T06:41:29.848Z,20.00
2022-08-23T06:43:58.422Z,20.10
2022-08-23T06:46:30.077Z,20.20
2022-08-23T06:48:59.622Z,20.40
2022-08-23T06:51:30.589Z,20.50
2022-08-23T06:54:03.151Z,20.70
2022-08-23T06:56:32.365Z,20.80
2022-08-23T06:59:00.582Z,21.00
2022-08-23T07:01:49.804Z,21.20
2022-08-23T07:04:20.391Z,21.40
2022-08-23T07:06:49.187Z,21.60
2022-08-23T07:09:18.737Z,21.80
2022-08-23T07:11:47.794Z,22.00
2022-08-23T07:14:19.039Z,22.10
2022-08-23T07:16:50.966Z,22.30
2022-08-23T07:19:20.861Z,22.40
2022-08-23T07:21:50.115Z,22.50
2022-08-23T07:24:22.808Z,22.50
2022-08-23T07:26:53.023Z,22.60
2022-08-23T07:29:22.228Z,22.60
2022-08-23T07:31:54.593Z,22.70
2022-08-23T07:34:24.135Z,22.70
2022-08-23T07:36:53.500Z,22.80
2022-08-23T07:39:22.464Z,22.90
2022-08-23T07:41:52.635Z,23.10
2022-08-23T07:44:23.109Z,23.20
2022-08-23T07:46:57.122Z,23.30
2022-08-23T07:49:29.454Z,23.50
2022-08-23T07:51:59.858Z,23.60
2022-08-23T07:54:29.052Z,23.70
2022-08-23T07:56:57.192Z,23.70
2022-08-23T07:59:25.268Z,23.80
2022-08-23T08:01:53.436Z,23.90
2022-08-23T08:04:23.031Z,24.10
2022-08-23T08:07:10.401Z,24.40
2022-08-23T08:09:40.945Z,24.60
2022-08-23T08:12:11.141Z,24.90
2022-08-23T08:14:39.913Z,25.20
2022-08-23T08:17:07.955Z,25.50
2022-08-23T08:19:37.539Z,25.80
2022-08-23T08:22:05.709Z,26.10
2022-08-23T08:24:33.804Z,26.40
2022-08-23T08:27:01.937Z,26.70
2022-08-23T08:29:30.073Z,27.00
2022-08-23T08:31:58.172Z,27.20
2022-08-23T08:34:26.428Z,27.10
2022-08-23T08:36:58.718Z,27.10
2022-08-23T08:39:30.840Z,27.00
2022-08-23T08:42:10.981Z,27.00
2022-08-23T08:44:41.936Z,27.00
2022-08-23T08:47:16.898Z,27.10
2022-08-23T08:49:49.800Z,27.10
2022-08-23T08:52:26.706Z,27.30
2022-08-23T08:55:05.205Z,27.30
2022-08-23T08:57:39.307Z,27.40
2022-08-23T09:00:10.055Z,27.40
2022-08-23T09:02:39.060Z,27.20
2022-08-23T09:05:12.182Z,27.40
2022-08-23T09:07:52.061Z,27.30
2022-08-23T09:10:44.386Z,27.30
2022-08-23T09:13:47.486Z,27.60
2022-08-23T09:16:32.109Z,28.00
2022-08-23T09:19:02.289Z,28.10
2022-08-23T09:21:38.849Z,28.40
2022-08-23T09:24:08.516Z,28.80
2022-08-23T09:26:37.824Z,29.10
2022-08-23T09:29:15.079Z,29.30
2022-08-23T09:31:47.344Z,29.50
2022-08-23T09:34:19.732Z,29.80
2022-08-23T09:36:48.422Z,30.10
2022-08-23T09:39:31.216Z,30.40
2022-08-23T09:42:00.961Z,30.80
2022-08-23T09:44:36.824Z,31.00
2022-08-23T09:47:11.847Z,31.10
2022-08-23T09:49:42.780Z,31.40
2022-08-23T09:52:22.812Z,31.60
2022-08-23T09:55:03.085Z,31.90
2022-08-23T09:57:34.335Z,32.50
2022-08-23T10:00:18.679Z,32.70
2022-08-23T10:02:46.971Z,33.10
2022-08-23T10:05:21.033Z,33.50
2022-08-23T10:07:56.884Z,33.60
2022-08-23T10:10:32.239Z,34.00
2022-08-23T10:13:01.228Z,33.90
2022-08-23T10:15:42.181Z,33.90
2022-08-23T10:18:20.559Z,34.30
2022-08-23T10:21:03.007Z,34.50
2022-08-23T10:23:44.921Z,34.70
2022-08-23T10:26:22.716Z,35.00
2022-08-23T10:29:14.398Z,35.30
2022-08-23T10:31:58.948Z,35.50
2022-08-23T10:34:41.277Z,35.60
2022-08-23T10:37:26.936Z,35.70
2022-08-23T10:40:04.012Z,35.90
2022-08-23T10:42:42.129Z,35.80
2022-08-23T10:45:18.383Z,36.00
2022-08-23T10:47:59.968Z,36.30
2022-08-23T10:50:31.682Z,36.30
2022-08-23T10:53:10.297Z,36.30
2022-08-23T10:55:54.935Z,36.50
2022-08-23T10:58:30.769Z,36.50
2022-08-23T11:01:00.461Z,36.70
2022-08-23T11:03:33.320Z,36.50
2022-08-23T11:06:27.863Z,36.50
2022-08-23T11:09:01.828Z,36.30
2022-08-23T11:11:44.552Z,36.00
2022-08-23T11:14:34.263Z,35.70
2022-08-23T11:17:07.045Z,35.30
2022-08-23T11:19:52.507Z,35.20
2022-08-23T11:22:22.984Z,35.00
2022-08-23T11:24:55.631Z,34.70
2022-08-23T11:27:42.212Z,34.60
2022-08-23T11:30:56.003Z,34.40
2022-08-23T11:33:28.118Z,33.90
2022-08-23T11:36:16.495Z,33.40
2022-08-23T11:39:11.002Z,33.00
2022-08-23T11:42:01.261Z,32.80
2022-08-23T11:44:38.265Z,32.70
2022-08-23T11:47:09.134Z,32.70
2022-08-23T11:50:07.916Z,32.60
2022-08-23T11:52:59.135Z,32.40
2022-08-23T11:55:54.215Z,32.30
2022-08-23T11:58:26.862Z,32.20
2022-08-23T12:01:07.620Z,32.00
2022-08-23T12:03:52.875Z,31.70
2022-08-23T12:06:42.098Z,31.60
2022-08-23T12:09:37.669Z,31.50
2022-08-23T12:12:24.001Z,31.40
2022-08-23T12:14:55.929Z,31.30
2022-08-23T12:17:56.964Z,31.30
2022-08-23T12:20:33.004Z,31.20
2022-08-23T12:23:16.879Z,31.10
2022-08-23T12:25:47.640Z,31.00
2022-08-23T12:28:36.287Z,30.80
2022-08-23T12:31:13.551Z,30.80
2022-08-23T12:33:52.406Z,30.60
2022-08-23T12:36:26.321Z,30.60
2022-08-23T12:39:02.702Z,30.60
2022-08-23T12:41:34.013Z,30.50
2022-08-23T12:44:06.232Z,30.50
2022-08-23T12:46:38.132Z,30.40
2022-08-23T12:49:07.992Z,30.50
2022-08-23T12:51:43.360Z,30.50
2022-08-23T12:54:18.090Z,30.80
2022-08-23T12:56:48.841Z,31.20
2022-08-23T12:59:36.858Z,31.70
2022-08-23T13:02:09.354Z,32.20
2022-08-23T13:04:41.360Z,32.50
2022-08-23T13:07:13.477Z,33.00
2022-08-23T13:09:53.337Z,33.40
2022-08-23T13:12:24.183Z,33.80
2022-08-23T13:14:54.371Z,33.90
2022-08-23T13:17:32.644Z,34.00
2022-08-23T13:20:24.691Z,33.80
2022-08-23T13:22:59.974Z,34.50
2022-08-23T13:25:32.712Z,35.30
2022-08-23T13:28:02.963Z,35.50
2022-08-23T13:30:33.198Z,35.20
2022-08-23T13:33:22.540Z,34.80
2022-08-23T13:35:52.513Z,34.80
2022-08-23T13:38:24.976Z,35.10
2022-08-23T13:41:01.054Z,35.20
2022-08-23T13:43:36.439Z,34.90
2022-08-23T13:46:15.790Z,34.60
2022-08-23T13:48:50.700Z,34.20
2022-08-23T13:51:26.566Z,33.90
2022-08-23T13:53:55.438Z,33.50
2022-08-23T13:56:25.648Z,33.30
2022-08-23T13:59:00.278Z,33.10
2022-08-23T14:01:29.328Z,32.70
2022-08-23T14:03:58.130Z,32.50
2022-08-23T14:06:26.492Z,32.20
2022-08-23T14:08:54.675Z,31.90
2022-08-23T14:11:24.226Z,31.60
2022-08-23T14:13:52.472Z,31.40
2022-08-23T14:16:33.974Z,31.50
2022-08-23T14:20:31.343Z,31.60
2022-08-23T14:21:53.328Z,31.40
2022-08-23T14:24:22.367Z,31.40
2022-08-23T14:26:52.790Z,31.20
2022-08-23T14:29:22.573Z,31.20
2022-08-23T14:31:51.976Z,31.00
2022-08-23T14:34:20.557Z,31.00
2022-08-23T14:39:39.742Z,30.80
2022-08-23T14:42:10.148Z,30.80
2022-08-23T14:44:38.294Z,30.50
2022-08-23T14:47:07.111Z,30.60
2022-08-23T14:49:38.511Z,30.70
2022-08-23T14:52:06.853Z,30.90
2022-08-23T14:54:35.902Z,30.90
2022-08-23T14:57:04.119Z,30.60
2022-08-23T14:59:33.725Z,30.30
2022-08-23T15:02:02.301Z,30.20
2022-08-23T15:04:34.334Z,30.20
2022-08-23T15:07:19.449Z,30.10
2022-08-23T15:09:48.559Z,30.30
2022-08-23T15:15:12.092Z,30.80
2022-08-23T15:17:46.460Z,31.10
2022-08-23T15:20:14.619Z,31.30
2022-08-23T15:22:44.414Z,31.40
2022-08-23T15:25:13.721Z,31.30
2022-08-23T15:27:42.398Z,31.40
2022-08-23T15:30:13.981Z,31.40
2022-08-23T15:32:52.099Z,31.50
2022-08-23T15:35:25.007Z,31.50
2022-08-23T15:37:54.579Z,31.70
2022-08-23T15:40:23.453Z,31.60
2022-08-23T15:42:52.120Z,31.50
2022-08-23T15:45:21.994Z,31.30
2022-08-23T15:47:52.713Z,31.10
2022-08-23T15:50:24.158Z,30.80
2022-08-23T15:52:53.110Z,30.60
2022-08-23T15:55:21.834Z,30.40
2022-08-23T15:57:52.829Z,30.20
2022-08-23T16:00:24.271Z,30.10
2022-08-23T16:03:19.289Z,30.10
2022-08-23T16:05:44.456Z,30.00
2022-08-23T16:08:18.640Z,29.80
2022-08-23T16:10:47.215Z,29.90
2022-08-23T16:13:15.835Z,29.80
2022-08-23T16:15:45.664Z,29.70
2022-08-23T16:18:14.005Z,29.70
2022-08-23T16:20:42.386Z,29.70
2022-08-23T16:23:10.745Z,29.70
2022-08-23T16:25:39.218Z,29.70
2022-08-23T16:28:15.478Z,29.70
2022-08-23T16:30:45.325Z,29.70
2022-08-23T16:33:13.650Z,29.70
2022-08-23T16:35:42.358Z,29.60
2022-08-23T16:38:10.725Z,29.80
2022-08-23T16:40:39.086Z,29.60
2022-08-23T16:43:07.706Z,29.60
2022-08-23T16:45:36.054Z,29.60
2022-08-23T16:48:06.376Z,29.50
2022-08-23T16:50:35.087Z,29.50
2022-08-23T16:53:07.371Z,29.30
2022-08-23T16:55:36.981Z,29.30
2022-08-23T16:58:05.763Z,29.20
2022-08-23T17:00:34.396Z,29.00
2022-08-23T17:03:03.517Z,28.90
2022-08-23T17:05:33.507Z,28.80
2022-08-23T17:08:03.126Z,28.70
2022-08-23T17:10:34.896Z,28.60
2022-08-23T17:13:04.011Z,28.40
2022-08-23T17:15:34.692Z,28.30
2022-08-23T17:18:03.477Z,28.20
2022-08-23T17:20:37.298Z,28.10
2022-08-23T17:23:06.095Z,27.80
2022-08-23T17:25:37.204Z,27.70
2022-08-23T17:28:09.744Z,27.70
2022-08-23T17:30:38.121Z,27.60
2022-08-23T17:33:13.206Z,27.60
2022-08-23T17:35:51.892Z,27.60
2022-08-23T17:38:22.332Z,27.60
2022-08-23T17:41:02.025Z,27.40
2022-08-23T17:43:39.926Z,27.40
2022-08-23T17:46:10.947Z,27.30
2022-08-23T17:48:42.271Z,27.20
2022-08-23T17:51:18.294Z,27.10
2022-08-23T17:53:49.828Z,26.90
2022-08-23T17:56:35.733Z,26.70
2022-08-23T17:59:09.761Z,26.70
2022-08-23T18:01:40.566Z,26.50
2022-08-23T18:04:14.704Z,26.30
2022-08-23T18:06:44.902Z,26.10
2022-08-23T18:09:19.879Z,25.90
2022-08-23T18:11:48.679Z,25.80
2022-08-23T18:14:21.563Z,25.60
2022-08-23T18:16:53.695Z,25.50
2022-08-23T18:19:23.099Z,25.40
2022-08-23T18:22:00.592Z,25.20
2022-08-23T18:24:31.968Z,25.10
2022-08-23T18:27:21.368Z,25.00
2022-08-23T18:29:54.870Z,24.90
2022-08-23T18:32:26.916Z,24.80
2022-08-23T18:35:08.865Z,24.70
2022-08-23T18:37:48.265Z,24.80
2022-08-23T18:40:19.910Z,24.70
2022-08-23T18:43:11.965Z,24.60
2022-08-23T18:45:40.678Z,24.60
2022-08-23T18:48:12.667Z,24.60
2022-08-23T18:50:41.393Z,24.60
2022-08-23T18:53:21.193Z,24.60
2022-08-23T18:55:51.231Z,24.60
2022-08-23T18:58:23.572Z,24.50
2022-08-23T19:00:54.364Z,24.70
2022-08-23T19:03:22.811Z,24.60
2022-08-23T19:05:53.493Z,24.60
2022-08-23T19:08:24.817Z,24.60
2022-08-23T19:10:56.848Z,24.50
2022-08-23T19:13:25.075Z,24.40
2022-08-23T19:15:53.975Z,24.40
2022-08-23T19:18:22.132Z,24.40
2022-08-23T19:20:52.923Z,24.20
2022-08-23T19:23:22.852Z,24.20
2022-08-23T19:25:51.683Z,24.20
2022-08-23T19:28:23.902Z,24.20
2022-08-23T19:30:58.727Z,24.10
2022-08-23T19:33:27.123Z,24.10
2022-08-23T19:35:58.017Z,24.00
2022-08-23T19:38:30.744Z,24.00
2022-08-23T19:41:09.649Z,24.00
2022-08-23T19:43:41.525Z,24.00
2022-08-23T19:46:33.374Z,24.00
2022-08-23T19:49:07.068Z,24.00
2022-08-23T19:51:43.403Z,24.00
2022-08-23T19:54:18.205Z,23.90
2022-08-23T19:56:49.024Z,23.80
2022-08-23T19:59:24.557Z,23.70
2022-08-23T20:02:15.192Z,23.70
2022-08-23T20:04:49.532Z,23.60
2022-08-23T20:07:17.744Z,23.60
2022-08-23T20:09:47.427Z,23.50
2022-08-23T20:12:18.949Z,23.40
2022-08-23T20:14:49.592Z,23.40
2022-08-23T20:17:18.511Z,23.30
2022-08-23T20:19:47.052Z,23.20
2022-08-23T20:22:33.236Z,23.20
2022-08-23T20:25:02.973Z,23.20
2022-08-23T20:27:31.430Z,23.10
2022-08-23T20:30:00.290Z,23.10
2022-08-23T20:32:28.836Z,23.10
2022-08-23T20:34:56.945Z,23.00
2022-08-23T20:37:25.511Z,23.00
2022-08-23T20:39:54.402Z,22.90
2022-08-23T20:42:24.184Z,22.90
2022-08-23T20:44:52.543Z,22.90
2022-08-23T20:47:20.749Z,22.80
2022-08-23T20:49:48.971Z,22.80
2022-08-23T20:52:18.281Z,22.80
2022-08-23T20:54:46.866Z,22.80
2022-08-23T20:57:15.158Z,22.80
2022-08-23T20:59:45.292Z,22.70
2022-08-23T21:02:13.909Z,22.70
2022-08-23T21:04:42.159Z,22.60
2022-08-23T21:07:10.436Z,22.50
2022-08-23T21:09:39.325Z,22.50
2022-08-23T21:12:07.782Z,22.40
2022-08-23T21:14:36.209Z,22.30
2022-08-23T21:17:05.887Z,22.30
2022-08-23T21:19:34.141Z,22.30
2022-08-23T21:22:02.269Z,22.20
2022-08-23T21:24:30.493Z,22.20
2022-08-23T21:26:59.164Z,22.10
2022-08-23T21:29:27.518Z,22.10
2022-08-23T21:31:55.689Z,22.10
2022-08-23T21:34:25.221Z,22.00
2022-08-23T21:36:54.675Z,22.00
2022-08-23T21:39:22.974Z,21.90
2022-08-23T21:41:51.598Z,21.90
2022-08-23T21:44:22.073Z,21.90
2022-08-23T21:46:50.533Z,21.80
2022-08-23T21:49:20.880Z,21.80
2022-08-23T21:51:53.193Z,21.70
2022-08-23T21:54:22.064Z,21.60
2022-08-23T21:56:50.185Z,21.60
2022-08-23T21:59:19.934Z,21.50
2022-08-23T22:01:48.257Z,21.40
2022-08-23T22:04:17.344Z,21.40
2022-08-23T22:06:47.976Z,21.30
2022-08-23T22:09:25.874Z,21.30
2022-08-23T22:12:00.204Z,21.30
2022-08-23T22:14:31.614Z,21.20
2022-08-23T22:17:00.466Z,21.20
2022-08-23T22:19:29.086Z,21.20
2022-08-23T22:21:57.227Z,21.00
2022-08-23T22:24:26.721Z,20.90
2022-08-23T22:26:55.485Z,20.80
2022-08-23T22:29:23.760Z,20.70
2022-08-23T22:31:52.100Z,20.60
2022-08-23T22:34:20.636Z,20.60
2022-08-23T22:36:52.005Z,20.50
2022-08-23T22:39:21.300Z,20.40
2022-08-23T22:41:51.094Z,20.40
2022-08-23T22:44:19.591Z,20.40
2022-08-23T22:46:48.186Z,20.50
2022-08-23T22:49:16.966Z,20.50
2022-08-23T22:51:45.096Z,20.50
2022-08-23T22:54:14.897Z,20.50
2022-08-23T22:56:45.410Z,20.50
2022-08-23T22:59:16.159Z,20.60
2022-08-23T23:01:46.596Z,20.60
2022-08-23T23:04:17.068Z,20.60
2022-08-23T23:06:46.061Z,20.60
2022-08-23T23:09:14.861Z,20.60
2022-08-23T23:11:43.845Z,20.60
2022-08-23T23:14:12.389Z,20.60
2022-08-23T23:16:42.470Z,20.60
2022-08-23T23:19:28.256Z,20.50
2022-08-23T23:21:58.839Z,20.50
2022-08-23T23:24:29.349Z,20.40
2022-08-23T23:26:58.193Z,20.40
2022-08-23T23:29:26.795Z,20.40
2022-08-23T23:31:56.421Z,20.30
2022-08-23T23:34:25.085Z,20.30
2022-08-23T23:36:56.919Z,20.30
2022-08-23T23:39:25.648Z,20.30
2022-08-23T23:41:54.609Z,20.30
2022-08-23T23:44:30.844Z,20.30
2022-08-23T23:47:02.594Z,20.30
2022-08-23T23:49:32.117Z,20.30
2022-08-23T23:52:02.006Z,20.30
2022-08-23T23:54:30.397Z,20.40
2022-08-23T23:56:58.535Z,20.40
2022-08-23T23:59:27.361Z,20.40
